sensor_id;sensor_type;location;lat;lon;timestamp;temperature;humidity
1766;DHT22;880;52.452;8.656;2023-04-29T00:01:19;12.30;99.90
1766;DHT22;880;52.452;8.656;2023-04-29T00:03:46;12.20;99.90
1766;DHT22;880;52.452;8.656;2023-04-29T00:06:14;12.20;99.90
1766;DHT22;880;52.452;8.656;2023-04-29T00:08:41;12.20;99.90
1766;DHT22;880;52.452;8.656;2023-04-29T00:11:08;12.20;99.90
1766;DHT22;880;52.452;8.656;2023-04-29T00:13:37;12.20;99.90
1766;DHT22;880;52.452;8.656;2023-04-29T00:16:07;12.10;99.90
1766;DHT22;880;52.452;8.656;2023-04-29T00:18:36;12.10;99.90
1766;DHT22;880;52.452;8.656;2023-04-29T00:21:04;12.00;99.90
1766;DHT22;880;52.452;8.656;2023-04-29T00:23:34;12.00;99.90
1766;DHT22;880;52.452;8.656;2023-04-29T00:26:01;12.00;99.90
1766;DHT22;880;52.452;8.656;2023-04-29T00:28:28;11.90;99.90
1766;DHT22;880;52.452;8.656;2023-04-29T00:30:55;12.00;99.90
1766;DHT22;880;52.452;8.656;2023-04-29T00:33:23;12.00;99.90
1766;DHT22;880;52.452;8.656;2023-04-29T00:35:50;11.90;99.90
1766;DHT22;880;52.452;8.656;2023-04-29T00:38:17;11.80;99.90
1766;DHT22;880;52.452;8.656;2023-04-29T00:40:44;11.80;99.90
1766;DHT22;880;52.452;8.656;2023-04-29T00:43:12;11.80;99.90
1766;DHT22;880;52.452;8.656;2023-04-29T00:45:39;11.70;99.90
1766;DHT22;880;52.452;8.656;2023-04-29T00:48:06;11.80;99.90
1766;DHT22;880;52.452;8.656;2023-04-29T00:50:33;11.80;99.90
1766;DHT22;880;52.452;8.656;2023-04-29T00:53:02;11.80;99.90
1766;DHT22;880;52.452;8.656;2023-04-29T00:55:30;11.80;99.90
1766;DHT22;880;52.452;8.656;2023-04-29T00:57:59;11.70;99.90
1766;DHT22;880;52.452;8.656;2023-04-29T01:00:26;11.70;99.90
1766;DHT22;880;52.452;8.656;2023-04-29T01:02:54;11.70;99.90
1766;DHT22;880;52.452;8.656;2023-04-29T01:05:23;11.70;99.90
1766;DHT22;880;52.452;8.656;2023-04-29T01:10:44;11.60;99.90
1766;DHT22;880;52.452;8.656;2023-04-29T01:13:28;11.60;99.90
1766;DHT22;880;52.452;8.656;2023-04-29T01:16:02;11.50;99.90
1766;DHT22;880;52.452;8.656;2023-04-29T01:18:38;11.60;99.90
1766;DHT22;880;52.452;8.656;2023-04-29T01:21:07;11.60;99.90
1766;DHT22;880;52.452;8.656;2023-04-29T01:23:35;11.60;99.90
1766;DHT22;880;52.452;8.656;2023-04-29T01:26:02;11.60;99.90
1766;DHT22;880;52.452;8.656;2023-04-29T01:34:16;11.60;99.90
1766;DHT22;880;52.452;8.656;2023-04-29T01:36:58;11.60;99.90
1766;DHT22;880;52.452;8.656;2023-04-29T01:43:00;11.40;99.90
1766;DHT22;880;52.452;8.656;2023-04-29T01:45:32;11.40;99.90
1766;DHT22;880;52.452;8.656;2023-04-29T01:48:00;11.30;99.90
1766;DHT22;880;52.452;8.656;2023-04-29T01:50:29;11.30;99.90
1766;DHT22;880;52.452;8.656;2023-04-29T01:53:04;11.30;99.90
1766;DHT22;880;52.452;8.656;2023-04-29T01:55:31;11.40;99.90
1766;DHT22;880;52.452;8.656;2023-04-29T01:58:14;11.40;99.90
1766;DHT22;880;52.452;8.656;2023-04-29T02:00:57;11.40;99.90
1766;DHT22;880;52.452;8.656;2023-04-29T02:03:26;11.40;99.90
1766;DHT22;880;52.452;8.656;2023-04-29T02:05:55;11.40;99.90
1766;DHT22;880;52.452;8.656;2023-04-29T02:08:23;11.30;99.90
1766;DHT22;880;52.452;8.656;2023-04-29T02:10:56;11.20;99.90
1766;DHT22;880;52.452;8.656;2023-04-29T02:13:36;11.20;99.90
1766;DHT22;880;52.452;8.656;2023-04-29T02:16:11;11.10;99.90
1766;DHT22;880;52.452;8.656;2023-04-29T02:18:44;11.10;99.90
1766;DHT22;880;52.452;8.656;2023-04-29T02:21:11;11.10;99.90
1766;DHT22;880;52.452;8.656;2023-04-29T02:23:38;11.10;99.90
1766;DHT22;880;52.452;8.656;2023-04-29T02:26:05;11.10;99.90
1766;DHT22;880;52.452;8.656;2023-04-29T02:28:33;11.00;99.90
1766;DHT22;880;52.452;8.656;2023-04-29T02:31:01;11.00;99.90
1766;DHT22;880;52.452;8.656;2023-04-29T02:33:29;10.90;99.90
1766;DHT22;880;52.452;8.656;2023-04-29T02:35:56;10.90;99.90
1766;DHT22;880;52.452;8.656;2023-04-29T02:38:23;10.90;99.90
1766;DHT22;880;52.452;8.656;2023-04-29T02:40:50;10.90;99.90
1766;DHT22;880;52.452;8.656;2023-04-29T02:43:17;11.00;99.90
1766;DHT22;880;52.452;8.656;2023-04-29T02:45:44;10.90;99.90
1766;DHT22;880;52.452;8.656;2023-04-29T02:48:11;10.90;99.90
1766;DHT22;880;52.452;8.656;2023-04-29T02:50:39;10.80;99.90
1766;DHT22;880;52.452;8.656;2023-04-29T02:53:06;10.80;99.90
1766;DHT22;880;52.452;8.656;2023-04-29T02:55:33;10.90;99.90
1766;DHT22;880;52.452;8.656;2023-04-29T02:58:06;10.90;99.90
1766;DHT22;880;52.452;8.656;2023-04-29T03:00:33;10.90;99.90
1766;DHT22;880;52.452;8.656;2023-04-29T03:03:00;10.80;99.90
1766;DHT22;880;52.452;8.656;2023-04-29T03:05:27;10.90;99.90
1766;DHT22;880;52.452;8.656;2023-04-29T03:07:54;10.90;99.90
1766;DHT22;880;52.452;8.656;2023-04-29T03:10:21;10.90;99.90
1766;DHT22;880;52.452;8.656;2023-04-29T03:12:48;10.90;99.90
1766;DHT22;880;52.452;8.656;2023-04-29T03:15:15;10.90;99.90
1766;DHT22;880;52.452;8.656;2023-04-29T03:17:43;11.00;99.90
1766;DHT22;880;52.452;8.656;2023-04-29T03:20:12;11.00;99.90
1766;DHT22;880;52.452;8.656;2023-04-29T03:22:39;11.10;99.90
1766;DHT22;880;52.452;8.656;2023-04-29T03:25:07;11.00;99.90
1766;DHT22;880;52.452;8.656;2023-04-29T03:27:37;11.00;99.90
1766;DHT22;880;52.452;8.656;2023-04-29T03:30:06;11.00;99.90
1766;DHT22;880;52.452;8.656;2023-04-29T03:32:38;11.00;99.90
1766;DHT22;880;52.452;8.656;2023-04-29T03:35:05;11.00;99.90
1766;DHT22;880;52.452;8.656;2023-04-29T03:37:52;10.90;99.90
1766;DHT22;880;52.452;8.656;2023-04-29T03:40:23;11.00;99.90
1766;DHT22;880;52.452;8.656;2023-04-29T03:42:50;10.90;99.90
1766;DHT22;880;52.452;8.656;2023-04-29T03:45:18;10.90;99.90
1766;DHT22;880;52.452;8.656;2023-04-29T03:47:45;10.90;99.90
1766;DHT22;880;52.452;8.656;2023-04-29T03:50:12;10.80;99.90
1766;DHT22;880;52.452;8.656;2023-04-29T03:52:40;10.90;99.90
1766;DHT22;880;52.452;8.656;2023-04-29T03:55:10;10.90;99.90
1766;DHT22;880;52.452;8.656;2023-04-29T03:57:38;10.80;99.90
1766;DHT22;880;52.452;8.656;2023-04-29T04:00:09;10.80;99.90
1766;DHT22;880;52.452;8.656;2023-04-29T04:02:39;10.70;99.90
1766;DHT22;880;52.452;8.656;2023-04-29T04:05:08;10.60;99.90
1766;DHT22;880;52.452;8.656;2023-04-29T04:07:39;10.70;99.90
1766;DHT22;880;52.452;8.656;2023-04-29T04:10:25;10.70;99.90
1766;DHT22;880;52.452;8.656;2023-04-29T04:12:52;10.70;99.90
1766;DHT22;880;52.452;8.656;2023-04-29T04:15:19;10.70;99.90
1766;DHT22;880;52.452;8.656;2023-04-29T04:17:48;10.70;99.90
1766;DHT22;880;52.452;8.656;2023-04-29T04:20:15;10.70;99.90
1766;DHT22;880;52.452;8.656;2023-04-29T04:22:43;10.70;99.90
1766;DHT22;880;52.452;8.656;2023-04-29T04:25:21;10.70;99.90
1766;DHT22;880;52.452;8.656;2023-04-29T04:27:49;10.70;99.90
1766;DHT22;880;52.452;8.656;2023-04-29T04:30:36;10.60;99.90
1766;DHT22;880;52.452;8.656;2023-04-29T04:33:03;10.50;99.90
1766;DHT22;880;52.452;8.656;2023-04-29T04:35:31;10.50;99.90
1766;DHT22;880;52.452;8.656;2023-04-29T04:37:58;10.50;99.90
1766;DHT22;880;52.452;8.656;2023-04-29T04:40:25;10.50;99.90
1766;DHT22;880;52.452;8.656;2023-04-29T04:43:21;10.40;99.90
1766;DHT22;880;52.452;8.656;2023-04-29T04:45:48;10.50;99.90
1766;DHT22;880;52.452;8.656;2023-04-29T04:48:15;10.50;99.90
1766;DHT22;880;52.452;8.656;2023-04-29T04:50:44;10.60;99.90
1766;DHT22;880;52.452;8.656;2023-04-29T04:53:10;10.60;99.90
1766;DHT22;880;52.452;8.656;2023-04-29T04:55:46;10.50;99.90
1766;DHT22;880;52.452;8.656;2023-04-29T04:58:13;10.50;99.90
1766;DHT22;880;52.452;8.656;2023-04-29T05:00:44;10.40;99.90
1766;DHT22;880;52.452;8.656;2023-04-29T05:03:11;10.40;99.90
1766;DHT22;880;52.452;8.656;2023-04-29T05:05:38;10.40;99.90
1766;DHT22;880;52.452;8.656;2023-04-29T05:08:05;10.40;99.90
1766;DHT22;880;52.452;8.656;2023-04-29T05:10:38;10.40;99.90
1766;DHT22;880;52.452;8.656;2023-04-29T05:13:06;10.50;99.90
1766;DHT22;880;52.452;8.656;2023-04-29T05:15:34;10.50;99.90
1766;DHT22;880;52.452;8.656;2023-04-29T05:18:02;10.60;99.90
1766;DHT22;880;52.452;8.656;2023-04-29T05:20:30;10.60;99.90
1766;DHT22;880;52.452;8.656;2023-04-29T05:22:59;10.70;99.90
1766;DHT22;880;52.452;8.656;2023-04-29T05:25:28;10.60;99.90
1766;DHT22;880;52.452;8.656;2023-04-29T05:27:56;10.70;99.90
1766;DHT22;880;52.452;8.656;2023-04-29T05:30:25;10.60;99.90
1766;DHT22;880;52.452;8.656;2023-04-29T05:32:52;10.60;99.90
1766;DHT22;880;52.452;8.656;2023-04-29T05:35:20;10.70;99.90
1766;DHT22;880;52.452;8.656;2023-04-29T05:37:48;10.70;99.90
1766;DHT22;880;52.452;8.656;2023-04-29T05:40:39;10.70;99.90
1766;DHT22;880;52.452;8.656;2023-04-29T05:43:39;10.60;99.90
1766;DHT22;880;52.452;8.656;2023-04-29T05:46:07;10.60;99.90
1766;DHT22;880;52.452;8.656;2023-04-29T05:48:34;10.50;99.90
1766;DHT22;880;52.452;8.656;2023-04-29T05:51:00;10.40;99.90
1766;DHT22;880;52.452;8.656;2023-04-29T05:53:28;10.50;99.90
1766;DHT22;880;52.452;8.656;2023-04-29T05:55:55;10.30;99.90
1766;DHT22;880;52.452;8.656;2023-04-29T05:58:22;10.30;99.90
1766;DHT22;880;52.452;8.656;2023-04-29T06:00:49;10.20;99.90
1766;DHT22;880;52.452;8.656;2023-04-29T06:03:21;10.20;99.90
1766;DHT22;880;52.452;8.656;2023-04-29T06:06:01;10.20;99.90
1766;DHT22;880;52.452;8.656;2023-04-29T06:08:54;10.20;99.90
1766;DHT22;880;52.452;8.656;2023-04-29T06:11:25;10.20;99.90
1766;DHT22;880;52.452;8.656;2023-04-29T06:13:52;10.20;99.90
1766;DHT22;880;52.452;8.656;2023-04-29T06:16:19;10.20;99.90
1766;DHT22;880;52.452;8.656;2023-04-29T06:18:47;10.30;99.90
1766;DHT22;880;52.452;8.656;2023-04-29T06:21:13;10.30;99.90
1766;DHT22;880;52.452;8.656;2023-04-29T06:23:42;10.40;99.90
1766;DHT22;880;52.452;8.656;2023-04-29T06:26:14;10.40;99.90
1766;DHT22;880;52.452;8.656;2023-04-29T06:28:41;10.30;99.90
1766;DHT22;880;52.452;8.656;2023-04-29T06:31:08;10.40;99.90
1766;DHT22;880;52.452;8.656;2023-04-29T06:33:35;10.50;99.90
1766;DHT22;880;52.452;8.656;2023-04-29T06:36:04;10.80;99.90
1766;DHT22;880;52.452;8.656;2023-04-29T06:38:55;11.00;99.90
1766;DHT22;880;52.452;8.656;2023-04-29T06:41:58;11.20;99.90
1766;DHT22;880;52.452;8.656;2023-04-29T06:44:25;11.30;99.90
1766;DHT22;880;52.452;8.656;2023-04-29T06:47:17;11.40;99.90
1766;DHT22;880;52.452;8.656;2023-04-29T06:50:05;11.40;99.90
1766;DHT22;880;52.452;8.656;2023-04-29T06:52:32;11.50;99.90
1766;DHT22;880;52.452;8.656;2023-04-29T06:55:00;11.50;99.90
1766;DHT22;880;52.452;8.656;2023-04-29T06:57:27;11.40;99.90
1766;DHT22;880;52.452;8.656;2023-04-29T06:59:54;11.40;99.90
1766;DHT22;880;52.452;8.656;2023-04-29T07:02:21;11.40;99.90
1766;DHT22;880;52.452;8.656;2023-04-29T07:04:48;11.40;99.90
1766;DHT22;880;52.452;8.656;2023-04-29T07:07:16;11.60;99.90
1766;DHT22;880;52.452;8.656;2023-04-29T07:09:43;11.60;99.90
1766;DHT22;880;52.452;8.656;2023-04-29T07:12:10;11.60;99.90
1766;DHT22;880;52.452;8.656;2023-04-29T07:14:37;11.70;99.90
1766;DHT22;880;52.452;8.656;2023-04-29T07:17:04;11.90;99.90
1766;DHT22;880;52.452;8.656;2023-04-29T07:19:31;12.20;99.90
1766;DHT22;880;52.452;8.656;2023-04-29T07:21:59;12.30;99.90
1766;DHT22;880;52.452;8.656;2023-04-29T07:24:25;12.30;99.90
1766;DHT22;880;52.452;8.656;2023-04-29T07:26:53;12.40;99.90
1766;DHT22;880;52.452;8.656;2023-04-29T07:29:19;12.30;99.90
1766;DHT22;880;52.452;8.656;2023-04-29T07:31:47;12.30;99.90
1766;DHT22;880;52.452;8.656;2023-04-29T07:34:14;12.30;99.90
1766;DHT22;880;52.452;8.656;2023-04-29T07:36:42;12.20;99.90
1766;DHT22;880;52.452;8.656;2023-04-29T07:39:10;12.30;99.90
1766;DHT22;880;52.452;8.656;2023-04-29T07:41:38;12.30;99.90
1766;DHT22;880;52.452;8.656;2023-04-29T07:44:05;12.20;99.90
1766;DHT22;880;52.452;8.656;2023-04-29T07:46:32;12.20;99.90
1766;DHT22;880;52.452;8.656;2023-04-29T07:48:59;12.40;99.90
1766;DHT22;880;52.452;8.656;2023-04-29T07:51:26;12.60;99.90
1766;DHT22;880;52.452;8.656;2023-04-29T07:53:54;12.70;99.90
1766;DHT22;880;52.452;8.656;2023-04-29T07:56:21;12.90;99.90
1766;DHT22;880;52.452;8.656;2023-04-29T07:58:49;13.00;99.90
1766;DHT22;880;52.452;8.656;2023-04-29T08:01:16;13.00;99.90
1766;DHT22;880;52.452;8.656;2023-04-29T08:03:43;12.90;99.90
1766;DHT22;880;52.452;8.656;2023-04-29T08:06:12;12.90;99.90
1766;DHT22;880;52.452;8.656;2023-04-29T08:08:40;13.10;99.90
1766;DHT22;880;52.452;8.656;2023-04-29T08:11:17;13.20;99.90
1766;DHT22;880;52.452;8.656;2023-04-29T08:13:45;13.30;99.90
1766;DHT22;880;52.452;8.656;2023-04-29T08:16:13;13.50;99.90
1766;DHT22;880;52.452;8.656;2023-04-29T08:18:40;13.50;99.90
1766;DHT22;880;52.452;8.656;2023-04-29T08:21:08;13.40;99.90
1766;DHT22;880;52.452;8.656;2023-04-29T08:23:38;13.50;99.90
1766;DHT22;880;52.452;8.656;2023-04-29T08:26:05;13.50;99.90
1766;DHT22;880;52.452;8.656;2023-04-29T08:28:32;13.70;99.90
1766;DHT22;880;52.452;8.656;2023-04-29T08:30:59;13.70;99.90
1766;DHT22;880;52.452;8.656;2023-04-29T08:33:26;13.50;99.90
1766;DHT22;880;52.452;8.656;2023-04-29T08:35:57;13.70;99.90
1766;DHT22;880;52.452;8.656;2023-04-29T08:38:26;13.80;99.90
1766;DHT22;880;52.452;8.656;2023-04-29T08:40:53;13.70;99.90
1766;DHT22;880;52.452;8.656;2023-04-29T08:43:22;13.50;99.90
1766;DHT22;880;52.452;8.656;2023-04-29T08:45:49;13.50;99.90
1766;DHT22;880;52.452;8.656;2023-04-29T08:48:16;13.50;99.90
1766;DHT22;880;52.452;8.656;2023-04-29T08:50:44;13.50;99.90
1766;DHT22;880;52.452;8.656;2023-04-29T08:53:13;13.60;99.90
1766;DHT22;880;52.452;8.656;2023-04-29T08:55:41;13.50;99.90
1766;DHT22;880;52.452;8.656;2023-04-29T08:58:11;13.40;99.90
1766;DHT22;880;52.452;8.656;2023-04-29T09:00:41;13.50;99.90
1766;DHT22;880;52.452;8.656;2023-04-29T09:03:25;13.60;99.90
1766;DHT22;880;52.452;8.656;2023-04-29T09:05:59;13.80;99.90
1766;DHT22;880;52.452;8.656;2023-04-29T09:08:27;13.60;99.90
1766;DHT22;880;52.452;8.656;2023-04-29T09:10:55;13.50;99.90
1766;DHT22;880;52.452;8.656;2023-04-29T09:13:24;13.60;99.90
1766;DHT22;880;52.452;8.656;2023-04-29T09:15:53;13.80;99.90
1766;DHT22;880;52.452;8.656;2023-04-29T09:18:48;13.80;99.90
1766;DHT22;880;52.452;8.656;2023-04-29T09:23:52;13.80;99.90
1766;DHT22;880;52.452;8.656;2023-04-29T09:26:20;14.00;99.90
1766;DHT22;880;52.452;8.656;2023-04-29T09:29:06;14.20;99.90
1766;DHT22;880;52.452;8.656;2023-04-29T09:31:36;14.30;99.90
1766;DHT22;880;52.452;8.656;2023-04-29T09:34:05;14.40;99.90
1766;DHT22;880;52.452;8.656;2023-04-29T09:36:43;14.50;99.90
1766;DHT22;880;52.452;8.656;2023-04-29T09:39:16;14.60;99.90
1766;DHT22;880;52.452;8.656;2023-04-29T09:44:30;14.80;99.90
1766;DHT22;880;52.452;8.656;2023-04-29T09:47:07;14.90;99.90
1766;DHT22;880;52.452;8.656;2023-04-29T09:49:37;15.00;99.90
1766;DHT22;880;52.452;8.656;2023-04-29T09:52:10;15.20;99.90
1766;DHT22;880;52.452;8.656;2023-04-29T09:54:40;15.30;99.90
1766;DHT22;880;52.452;8.656;2023-04-29T09:57:09;15.50;99.90
1766;DHT22;880;52.452;8.656;2023-04-29T09:59:38;15.60;99.90
1766;DHT22;880;52.452;8.656;2023-04-29T10:02:12;15.60;99.90
1766;DHT22;880;52.452;8.656;2023-04-29T10:04:53;15.60;99.90
1766;DHT22;880;52.452;8.656;2023-04-29T10:07:24;15.60;99.90
1766;DHT22;880;52.452;8.656;2023-04-29T10:09:53;15.40;99.90
1766;DHT22;880;52.452;8.656;2023-04-29T10:12:21;15.40;99.90
1766;DHT22;880;52.452;8.656;2023-04-29T10:15:01;15.60;99.90
1766;DHT22;880;52.452;8.656;2023-04-29T10:20:22;15.70;99.90
1766;DHT22;880;52.452;8.656;2023-04-29T10:22:52;15.80;99.90
1766;DHT22;880;52.452;8.656;2023-04-29T10:25:25;15.70;99.90
1766;DHT22;880;52.452;8.656;2023-04-29T10:27:54;15.80;99.90
1766;DHT22;880;52.452;8.656;2023-04-29T10:30:21;15.80;99.90
1766;DHT22;880;52.452;8.656;2023-04-29T10:32:50;15.80;99.90
1766;DHT22;880;52.452;8.656;2023-04-29T10:35:21;15.90;99.90
1766;DHT22;880;52.452;8.656;2023-04-29T10:37:50;16.10;99.90
1766;DHT22;880;52.452;8.656;2023-04-29T10:40:34;16.30;99.90
1766;DHT22;880;52.452;8.656;2023-04-29T10:43:02;16.50;99.90
1766;DHT22;880;52.452;8.656;2023-04-29T10:45:31;16.80;99.90
1766;DHT22;880;52.452;8.656;2023-04-29T10:50:29;16.80;99.90
1766;DHT22;880;52.452;8.656;2023-04-29T10:52:56;16.90;99.90
1766;DHT22;880;52.452;8.656;2023-04-29T10:55:24;17.30;99.90
1766;DHT22;880;52.452;8.656;2023-04-29T10:57:55;17.60;99.90
1766;DHT22;880;52.452;8.656;2023-04-29T11:02:54;17.50;99.90
1766;DHT22;880;52.452;8.656;2023-04-29T11:05:35;17.40;99.90
1766;DHT22;880;52.452;8.656;2023-04-29T11:08:12;17.40;99.90
1766;DHT22;880;52.452;8.656;2023-04-29T11:10:59;17.30;99.90
1766;DHT22;880;52.452;8.656;2023-04-29T11:13:31;17.30;99.90
1766;DHT22;880;52.452;8.656;2023-04-29T11:16:03;17.20;99.90
1766;DHT22;880;52.452;8.656;2023-04-29T11:18:32;17.20;99.90
1766;DHT22;880;52.452;8.656;2023-04-29T11:23:38;17.10;99.90
1766;DHT22;880;52.452;8.656;2023-04-29T11:26:10;17.00;99.90
1766;DHT22;880;52.452;8.656;2023-04-29T11:28:38;16.90;99.90
1766;DHT22;880;52.452;8.656;2023-04-29T11:31:07;16.80;99.90
1766;DHT22;880;52.452;8.656;2023-04-29T11:33:34;16.60;99.90
1766;DHT22;880;52.452;8.656;2023-04-29T11:36:02;16.40;99.90
1766;DHT22;880;52.452;8.656;2023-04-29T11:38:29;16.40;99.90
1766;DHT22;880;52.452;8.656;2023-04-29T11:40:58;16.40;99.90
1766;DHT22;880;52.452;8.656;2023-04-29T11:43:25;16.50;99.90
1766;DHT22;880;52.452;8.656;2023-04-29T11:45:52;16.60;99.90
1766;DHT22;880;52.452;8.656;2023-04-29T11:48:24;16.60;99.90
1766;DHT22;880;52.452;8.656;2023-04-29T11:50:55;16.60;99.90
1766;DHT22;880;52.452;8.656;2023-04-29T11:53:25;16.60;99.90
1766;DHT22;880;52.452;8.656;2023-04-29T11:55:53;16.60;99.90
1766;DHT22;880;52.452;8.656;2023-04-29T11:58:21;16.80;99.90
1766;DHT22;880;52.452;8.656;2023-04-29T12:00:50;17.10;99.90
1766;DHT22;880;52.452;8.656;2023-04-29T12:03:20;17.20;99.90
1766;DHT22;880;52.452;8.656;2023-04-29T12:05:50;17.20;99.90
1766;DHT22;880;52.452;8.656;2023-04-29T12:08:19;17.20;99.90
1766;DHT22;880;52.452;8.656;2023-04-29T12:10:55;17.00;99.90
1766;DHT22;880;52.452;8.656;2023-04-29T12:13:27;16.90;99.90
1766;DHT22;880;52.452;8.656;2023-04-29T12:15:56;16.80;99.90
1766;DHT22;880;52.452;8.656;2023-04-29T12:18:24;16.60;99.90
1766;DHT22;880;52.452;8.656;2023-04-29T12:20:53;16.40;99.90
1766;DHT22;880;52.452;8.656;2023-04-29T12:23:23;16.20;99.90
1766;DHT22;880;52.452;8.656;2023-04-29T12:25:54;16.10;99.90
1766;DHT22;880;52.452;8.656;2023-04-29T12:28:23;16.10;99.90
1766;DHT22;880;52.452;8.656;2023-04-29T12:30:52;16.10;99.90
1766;DHT22;880;52.452;8.656;2023-04-29T12:33:27;16.20;99.90
1766;DHT22;880;52.452;8.656;2023-04-29T12:35:56;16.30;99.90
1766;DHT22;880;52.452;8.656;2023-04-29T12:38:29;16.20;99.90
1766;DHT22;880;52.452;8.656;2023-04-29T12:40:59;16.20;99.90
1766;DHT22;880;52.452;8.656;2023-04-29T12:43:28;16.20;99.90
1766;DHT22;880;52.452;8.656;2023-04-29T12:46:04;16.20;99.90
1766;DHT22;880;52.452;8.656;2023-04-29T12:48:37;16.20;99.90
1766;DHT22;880;52.452;8.656;2023-04-29T12:51:04;16.10;99.90
1766;DHT22;880;52.452;8.656;2023-04-29T12:53:35;15.90;99.90
1766;DHT22;880;52.452;8.656;2023-04-29T12:56:02;15.80;99.90
1766;DHT22;880;52.452;8.656;2023-04-29T12:58:31;15.90;99.90
1766;DHT22;880;52.452;8.656;2023-04-29T13:01:00;16.00;99.90
1766;DHT22;880;52.452;8.656;2023-04-29T13:03:27;16.20;99.90
1766;DHT22;880;52.452;8.656;2023-04-29T13:05:54;16.40;99.90
1766;DHT22;880;52.452;8.656;2023-04-29T13:08:21;16.40;99.90
1766;DHT22;880;52.452;8.656;2023-04-29T13:10:49;16.40;99.90
1766;DHT22;880;52.452;8.656;2023-04-29T13:13:16;16.10;99.90
1766;DHT22;880;52.452;8.656;2023-04-29T13:15:43;16.00;99.90
1766;DHT22;880;52.452;8.656;2023-04-29T13:18:10;15.70;99.90
1766;DHT22;880;52.452;8.656;2023-04-29T13:20:37;15.50;99.90
1766;DHT22;880;52.452;8.656;2023-04-29T13:23:08;15.40;99.90
1766;DHT22;880;52.452;8.656;2023-04-29T13:25:36;15.60;99.90
1766;DHT22;880;52.452;8.656;2023-04-29T13:28:03;15.60;99.90
1766;DHT22;880;52.452;8.656;2023-04-29T13:30:33;15.60;99.90
1766;DHT22;880;52.452;8.656;2023-04-29T13:33:00;15.60;99.90
1766;DHT22;880;52.452;8.656;2023-04-29T13:35:37;15.60;99.90
1766;DHT22;880;52.452;8.656;2023-04-29T13:38:09;15.60;99.90
1766;DHT22;880;52.452;8.656;2023-04-29T13:40:36;15.70;99.90
1766;DHT22;880;52.452;8.656;2023-04-29T13:43:10;15.80;99.90
1766;DHT22;880;52.452;8.656;2023-04-29T13:45:42;16.10;99.90
1766;DHT22;880;52.452;8.656;2023-04-29T13:48:13;16.20;99.90
1766;DHT22;880;52.452;8.656;2023-04-29T13:51:00;16.40;99.90
1766;DHT22;880;52.452;8.656;2023-04-29T13:53:30;17.00;99.90
1766;DHT22;880;52.452;8.656;2023-04-29T13:56:00;17.40;99.90
1766;DHT22;880;52.452;8.656;2023-04-29T13:58:47;17.70;99.90
1766;DHT22;880;52.452;8.656;2023-04-29T14:01:18;18.00;99.90
1766;DHT22;880;52.452;8.656;2023-04-29T14:04:05;17.90;99.90
1766;DHT22;880;52.452;8.656;2023-04-29T14:06:32;17.90;99.90
1766;DHT22;880;52.452;8.656;2023-04-29T14:09:00;18.10;99.90
1766;DHT22;880;52.452;8.656;2023-04-29T14:11:29;18.20;99.90
1766;DHT22;880;52.452;8.656;2023-04-29T14:13:56;17.90;99.90
1766;DHT22;880;52.452;8.656;2023-04-29T14:16:23;17.60;99.90
1766;DHT22;880;52.452;8.656;2023-04-29T14:18:50;17.40;99.90
1766;DHT22;880;52.452;8.656;2023-04-29T14:21:17;17.40;99.90
1766;DHT22;880;52.452;8.656;2023-04-29T14:23:48;17.40;99.90
1766;DHT22;880;52.452;8.656;2023-04-29T14:26:16;17.70;99.90
1766;DHT22;880;52.452;8.656;2023-04-29T14:28:54;18.10;99.90
1766;DHT22;880;52.452;8.656;2023-04-29T14:31:27;18.30;99.90
1766;DHT22;880;52.452;8.656;2023-04-29T14:33:56;18.20;99.90
1766;DHT22;880;52.452;8.656;2023-04-29T14:36:24;18.10;99.90
1766;DHT22;880;52.452;8.656;2023-04-29T14:38:52;17.90;99.90
1766;DHT22;880;52.452;8.656;2023-04-29T14:41:33;18.10;99.90
1766;DHT22;880;52.452;8.656;2023-04-29T14:44:00;18.20;99.90
1766;DHT22;880;52.452;8.656;2023-04-29T14:46:27;18.50;99.90
1766;DHT22;880;52.452;8.656;2023-04-29T14:48:55;18.50;99.90
1766;DHT22;880;52.452;8.656;2023-04-29T14:51:22;18.20;99.90
1766;DHT22;880;52.452;8.656;2023-04-29T14:53:49;18.00;99.90
1766;DHT22;880;52.452;8.656;2023-04-29T14:56:17;17.90;99.90
1766;DHT22;880;52.452;8.656;2023-04-29T14:58:58;17.70;99.90
1766;DHT22;880;52.452;8.656;2023-04-29T15:01:43;17.50;99.90
1766;DHT22;880;52.452;8.656;2023-04-29T15:04:11;17.20;99.90
1766;DHT22;880;52.452;8.656;2023-04-29T15:06:39;17.20;99.90
1766;DHT22;880;52.452;8.656;2023-04-29T15:09:07;17.50;99.90
1766;DHT22;880;52.452;8.656;2023-04-29T15:11:34;17.70;99.90
1766;DHT22;880;52.452;8.656;2023-04-29T15:14:01;18.00;99.90
1766;DHT22;880;52.452;8.656;2023-04-29T15:16:28;17.90;99.90
1766;DHT22;880;52.452;8.656;2023-04-29T15:18:56;17.90;99.90
1766;DHT22;880;52.452;8.656;2023-04-29T15:21:23;17.90;99.90
1766;DHT22;880;52.452;8.656;2023-04-29T15:23:50;17.70;99.90
1766;DHT22;880;52.452;8.656;2023-04-29T15:26:17;17.50;99.90
1766;DHT22;880;52.452;8.656;2023-04-29T15:28:45;17.40;99.90
1766;DHT22;880;52.452;8.656;2023-04-29T15:31:12;17.40;99.90
1766;DHT22;880;52.452;8.656;2023-04-29T15:33:39;17.50;99.90
1766;DHT22;880;52.452;8.656;2023-04-29T15:36:06;17.50;99.90
1766;DHT22;880;52.452;8.656;2023-04-29T15:38:33;17.60;99.90
1766;DHT22;880;52.452;8.656;2023-04-29T15:41:00;17.60;99.90
1766;DHT22;880;52.452;8.656;2023-04-29T15:43:29;17.60;99.90
1766;DHT22;880;52.452;8.656;2023-04-29T15:45:57;17.60;99.90
1766;DHT22;880;52.452;8.656;2023-04-29T15:48:25;17.50;99.90
1766;DHT22;880;52.452;8.656;2023-04-29T15:50:52;17.50;99.90
1766;DHT22;880;52.452;8.656;2023-04-29T15:53:19;17.60;99.90
1766;DHT22;880;52.452;8.656;2023-04-29T15:55:46;17.80;99.90
1766;DHT22;880;52.452;8.656;2023-04-29T15:58:13;18.00;99.90
1766;DHT22;880;52.452;8.656;2023-04-29T16:00:40;18.10;99.90
1766;DHT22;880;52.452;8.656;2023-04-29T16:03:07;18.30;99.90
1766;DHT22;880;52.452;8.656;2023-04-29T16:05:34;18.50;99.90
1766;DHT22;880;52.452;8.656;2023-04-29T16:08:02;18.30;99.90
1766;DHT22;880;52.452;8.656;2023-04-29T16:10:30;18.50;99.90
1766;DHT22;880;52.452;8.656;2023-04-29T16:13:04;18.70;99.90
1766;DHT22;880;52.452;8.656;2023-04-29T16:15:31;18.80;99.90
1766;DHT22;880;52.452;8.656;2023-04-29T16:17:58;18.60;99.90
1766;DHT22;880;52.452;8.656;2023-04-29T16:20:27;18.60;99.90
1766;DHT22;880;52.452;8.656;2023-04-29T16:22:54;18.60;99.90
1766;DHT22;880;52.452;8.656;2023-04-29T16:25:21;18.70;99.90
1766;DHT22;880;52.452;8.656;2023-04-29T16:27:48;18.80;99.90
1766;DHT22;880;52.452;8.656;2023-04-29T16:30:15;18.90;99.90
1766;DHT22;880;52.452;8.656;2023-04-29T16:32:42;18.90;99.90
1766;DHT22;880;52.452;8.656;2023-04-29T16:35:09;18.60;99.90
1766;DHT22;880;52.452;8.656;2023-04-29T16:37:36;18.50;99.90
1766;DHT22;880;52.452;8.656;2023-04-29T16:40:04;18.30;99.90
1766;DHT22;880;52.452;8.656;2023-04-29T16:42:32;18.30;99.90
1766;DHT22;880;52.452;8.656;2023-04-29T16:44:59;18.20;99.90
1766;DHT22;880;52.452;8.656;2023-04-29T16:47:26;18.30;99.90
1766;DHT22;880;52.452;8.656;2023-04-29T16:49:53;18.20;99.90
1766;DHT22;880;52.452;8.656;2023-04-29T16:52:21;18.10;99.90
1766;DHT22;880;52.452;8.656;2023-04-29T16:54:48;18.10;99.90
1766;DHT22;880;52.452;8.656;2023-04-29T16:57:15;18.00;99.90
1766;DHT22;880;52.452;8.656;2023-04-29T16:59:42;17.90;99.90
1766;DHT22;880;52.452;8.656;2023-04-29T17:02:08;17.90;99.90